Time;durP1;ratioP1;P1;durP2;ratioP2;P2;SDS_P1;SDS_P2;PMS_P1;PMS_P2;Temp;Humidity;BMP_temperature;BMP_pressure;BME280_temperature;BME280_humidity;BME280_pressure;Samples;Min_cycle;Max_cycle;Signal;HPM_P1;HPM_P2
2023/07/04 00:01:58;;;;;;;14.70;6.33;;;17.30;91.10;;;16.76;58.37;100245.69;5056722;28;20218;-76
2023/07/04 00:04:31;;;;;;;10.47;6.13;;;17.30;91.30;;;16.77;58.07;100249.22;5056664;28;20662;-76
2023/07/04 00:07:05;;;;;;;10.80;5.50;;;17.30;91.20;;;16.76;58.11;100247.56;5056577;28;20242;-76
2023/07/04 00:09:36;;;;;;;16.47;5.63;;;17.30;91.20;;;16.81;57.90;100255.88;5056611;28;20281;-76
2023/07/04 00:12:10;;;;;;;13.07;5.73;;;17.30;91.40;;;16.79;58.14;100247.13;5056540;28;20198;-76
2023/07/04 00:14:42;;;;;;;13.37;5.70;;;17.30;91.30;;;16.80;57.45;100246.94;5056145;28;20670;-76
2023/07/04 00:17:14;;;;;;;13.33;5.67;;;17.30;91.20;;;16.79;58.26;100257.94;5056465;28;20186;-76
2023/07/04 00:19:48;;;;;;;14.37;6.33;;;17.30;91.40;;;16.79;58.35;100260.63;5056092;28;20597;-76
2023/07/04 00:22:21;;;;;;;13.43;6.97;;;17.30;91.30;;;16.77;57.85;100251.91;5056332;28;20244;-76
2023/07/04 00:24:53;;;;;;;16.40;6.27;;;17.30;91.30;;;16.80;58.06;100259.59;5056236;28;20261;-76
2023/07/04 00:27:25;;;;;;;15.17;6.53;;;17.30;91.40;;;16.77;57.54;100257.34;5056211;28;20230;-76
2023/07/04 00:29:58;;;;;;;12.20;5.70;;;17.50;91.20;;;16.82;56.78;100265.63;5055883;28;20289;-76
2023/07/04 00:32:30;;;;;;;11.53;5.30;;;17.30;90.70;;;16.84;56.79;100266.25;5056152;28;20191;-76
2023/07/04 00:35:03;;;;;;;12.10;5.50;;;17.40;90.60;;;16.86;56.20;100267.69;5055795;28;20237;-76
2023/07/04 00:37:36;;;;;;;14.63;5.07;;;17.40;90.80;;;16.90;55.70;100258.13;5055739;28;20596;-76
2023/07/04 00:40:12;;;;;;;13.07;5.00;;;17.40;90.00;;;16.95;55.24;100257.50;5056036;28;20194;-76
2023/07/04 00:42:45;;;;;;;14.07;4.90;;;17.50;88.80;;;16.96;55.14;100253.72;5055985;28;20277;-76
2023/07/04 00:45:20;;;;;;;8.87;4.50;;;17.50;89.50;;;16.95;54.98;100262.91;5055769;28;20257;-76
2023/07/04 00:48:00;;;;;;;11.43;4.47;;;17.50;89.00;;;16.95;54.91;100268.31;5055993;28;20267;-76
2023/07/04 00:50:44;;;;;;;12.43;4.77;;;17.50;89.20;;;16.94;55.81;100272.88;5055872;28;20197;-76
2023/07/04 00:53:19;;;;;;;9.60;4.50;;;17.50;89.70;;;16.94;55.90;100285.56;5055772;28;20294;-76
2023/07/04 00:55:52;;;;;;;9.90;4.63;;;17.50;90.00;;;16.93;56.14;100292.00;5055348;28;20668;-76
2023/07/04 00:58:24;;;;;;;9.87;4.07;;;17.50;89.70;;;16.88;57.38;100308.06;5055378;28;20281;-76
2023/07/04 01:00:56;;;;;;;13.83;4.10;;;17.40;91.40;;;16.80;59.97;100313.69;5054871;28;20206;-77
2023/07/04 01:03:28;;;;;;;10.93;4.13;;;17.30;92.20;;;16.70;60.83;100314.94;5055163;28;20194;-76
2023/07/04 01:06:15;;;;;;;11.10;4.50;;;17.20;92.80;;;16.64;60.94;100323.06;5055433;28;20230;-76
2023/07/04 01:08:56;;;;;;;11.73;3.60;;;17.10;92.80;;;16.60;61.67;100325.38;5055168;28;20190;-76
2023/07/04 01:11:42;;;;;;;14.03;4.37;;;17.10;93.40;;;16.54;62.59;100323.44;5055444;28;20220;-76
2023/07/04 01:14:26;;;;;;;11.07;4.00;;;17.10;93.80;;;16.52;63.40;100344.44;5055360;28;20222;-76
2023/07/04 01:16:59;;;;;;;12.40;4.00;;;17.00;94.00;;;16.47;63.61;100336.13;5055361;28;20218;-76
2023/07/04 01:19:38;;;;;;;9.53;3.90;;;16.90;94.20;;;16.39;63.53;100332.81;5054985;28;20636;-76
2023/07/04 01:22:19;;;;;;;11.80;3.67;;;16.90;94.50;;;16.37;63.82;100335.72;5054933;28;20655;-76
2023/07/04 01:25:20;;;;;;;11.90;3.90;;;16.80;94.60;;;16.27;64.60;100329.06;5055125;28;20280;-76
2023/07/04 01:27:59;;;;;;;9.83;3.67;;;16.80;94.70;;;16.25;64.49;100342.78;5055097;28;20212;-76
2023/07/04 01:30:37;;;;;;;8.87;3.20;;;16.70;94.80;;;16.21;64.19;100346.94;5055091;28;20281;-76
2023/07/04 01:33:10;;;;;;;8.57;2.93;;;16.70;94.60;;;16.23;64.16;100344.88;5055051;28;20190;-76
2023/07/04 01:35:43;;;;;;;5.77;2.70;;;16.70;94.40;;;16.20;63.53;100346.09;5054528;28;20240;-76
2023/07/04 01:38:14;;;;;;;3.83;2.50;;;16.70;94.50;;;16.24;63.64;100349.22;5054634;28;20194;-76
2023/07/04 01:40:46;;;;;;;5.83;2.23;;;16.70;94.50;;;16.12;63.77;100343.59;5054890;28;20252;-76
2023/07/04 01:43:20;;;;;;;5.23;2.10;;;16.80;94.40;;;16.12;63.44;100359.81;5054534;28;20198;-76
2023/07/04 01:45:52;;;;;;;4.23;2.17;;;16.60;94.20;;;15.83;63.39;100353.91;5054655;28;20321;-76
2023/07/04 01:48:24;;;;;;;9.17;2.50;;;16.40;94.40;;;15.77;63.73;100366.38;5054734;28;20191;-76
2023/07/04 01:50:56;;;;;;;6.70;2.20;;;16.30;94.80;;;15.67;64.22;100361.34;5054709;28;20356;-76
2023/07/04 01:53:28;;;;;;;3.43;1.70;;;16.20;94.30;;;15.72;63.82;100371.53;5054345;28;20629;-76
2023/07/04 01:56:00;;;;;;;5.23;2.00;;;16.30;94.30;;;15.64;64.21;100375.25;5054486;28;20236;-76
2023/07/04 01:58:33;;;;;;;5.73;1.83;;;16.20;94.40;;;15.59;63.88;100377.72;5054190;28;20652;-76
2023/07/04 02:01:05;;;;;;;6.10;1.70;;;16.10;94.30;;;15.45;64.58;100389.44;5054186;28;20232;-76
2023/07/04 02:03:36;;;;;;;5.47;1.43;;;16.00;94.60;;;15.38;65.43;100403.91;5054147;28;20194;-76
2023/07/04 02:06:09;;;;;;;4.13;1.70;;;15.90;95.20;;;15.15;68.97;100401.53;5054270;28;20206;-76
2023/07/04 02:08:40;;;;;;;2.37;1.43;;;15.70;96.80;;;14.88;72.09;100399.69;5054818;28;20291;-76
2023/07/04 02:11:13;;;;;;;3.20;1.53;;;15.40;98.40;;;14.98;72.22;100409.09;5054001;28;20626;-76
2023/07/04 02:13:46;;;;;;;3.43;1.53;;;15.40;99.20;;;14.83;72.70;100399.44;5053566;28;20210;-76
2023/07/04 02:16:18;;;;;;;4.83;1.40;;;15.30;99.20;;;14.83;73.81;100400.25;5053875;28;20186;-76
2023/07/04 02:18:49;;;;;;;2.57;1.60;;;15.40;99.90;;;14.66;74.66;100382.72;5054181;28;20195;-76
2023/07/04 02:21:24;;;;;;;2.10;1.13;;;15.30;99.90;;;14.71;73.62;100366.81;5054109;28;20194;-76
2023/07/04 02:23:56;;;;;;;3.47;1.40;;;15.20;99.90;;;14.72;74.45;100360.41;5053693;28;20196;-76
2023/07/04 02:26:28;;;;;;;3.23;1.50;;;15.20;99.90;;;14.81;74.00;100351.13;5054003;28;20268;-76
2023/07/04 02:29:02;;;;;;;4.40;1.60;;;15.30;99.90;;;14.73;75.04;100351.25;5053965;28;20194;-76
2023/07/04 02:31:34;;;;;;;2.30;1.40;;;15.10;99.90;;;14.64;75.96;100353.28;5053946;28;20194;-76
2023/07/04 02:34:06;;;;;;;2.63;1.57;;;15.20;99.90;;;14.58;76.45;100347.84;5053632;28;20234;-76
2023/07/04 02:36:38;;;;;;;2.20;1.40;;;15.20;99.90;;;14.58;75.90;100354.06;5053780;28;20286;-76
2023/07/04 02:39:10;;;;;;;2.43;1.63;;;15.10;99.90;;;14.66;74.66;100351.22;5053821;28;20281;-76
2023/07/04 02:41:42;;;;;;;3.73;1.70;;;15.10;99.90;;;14.45;76.03;100353.94;5053753;28;20190;-76
2023/07/04 02:44:15;;;;;;;3.30;1.63;;;15.10;99.90;;;14.49;75.38;100349.00;5053671;28;20325;-76
2023/07/04 02:46:47;;;;;;;2.40;1.30;;;15.20;99.90;;;14.58;74.52;100348.69;5053687;28;20216;-76
2023/07/04 02:49:19;;;;;;;2.43;1.40;;;15.20;99.90;;;14.49;74.63;100346.31;5053646;28;20221;-76
2023/07/04 02:51:50;;;;;;;3.93;1.63;;;15.00;99.90;;;14.42;74.69;100350.81;5053258;28;20277;-76
2023/07/04 02:54:22;;;;;;;2.47;1.70;;;15.00;99.90;;;14.58;74.77;100353.22;5053774;28;20287;-76
2023/07/04 02:56:54;;;;;;;3.07;1.40;;;15.10;99.90;;;14.46;74.61;100354.78;5053545;28;20197;-76
2023/07/04 02:59:27;;;;;;;2.10;1.40;;;15.00;99.90;;;14.53;75.66;100366.44;5053513;28;20190;-76
2023/07/04 03:01:59;;;;;;;2.30;1.70;;;15.00;99.90;;;14.55;75.34;100367.94;5053433;28;20251;-76
2023/07/04 03:04:32;;;;;;;2.57;1.47;;;15.20;99.90;;;14.51;75.58;100357.72;5053390;28;20237;-76
2023/07/04 03:07:04;;;;;;;2.57;1.60;;;15.00;99.90;;;14.44;75.88;100363.06;5053384;28;20210;-76
2023/07/04 03:09:38;;;;;;;2.20;1.53;;;15.10;99.90;;;14.48;75.30;100364.34;5053419;28;20198;-76
2023/07/04 03:12:11;;;;;;;3.50;1.57;;;15.10;99.90;;;14.45;74.95;100369.28;5053400;28;20361;-76
2023/07/04 03:14:44;;;;;;;2.97;1.80;;;15.00;99.90;;;14.52;74.83;100373.69;5053331;28;20329;-76
2023/07/04 03:17:16;;;;;;;3.70;1.60;;;15.10;99.90;;;14.38;75.07;100381.88;5053380;28;20187;-76
2023/07/04 03:19:48;;;;;;;3.23;1.43;;;15.00;99.90;;;14.43;75.60;100393.72;5053280;28;20252;-76
2023/07/04 03:22:21;;;;;;;1.87;1.37;;;14.90;99.90;;;14.43;75.26;100393.72;5053298;28;20241;-76
2023/07/04 03:24:53;;;;;;;4.77;1.70;;;15.10;99.90;;;14.47;74.90;100389.63;5053826;28;20782;-76
2023/07/04 03:27:25;;;;;;;3.10;1.50;;;15.00;99.90;;;14.48;74.24;100396.69;5057332;28;20249;-76
2023/07/04 03:29:58;;;;;;;3.00;1.70;;;15.00;99.90;;;14.44;74.55;100395.41;5057042;28;20191;-76
2023/07/04 03:32:31;;;;;;;2.90;1.80;;;15.00;99.90;;;14.55;74.31;100392.19;5057300;28;20217;-76
2023/07/04 03:35:03;;;;;;;1.80;1.33;;;15.10;99.90;;;14.49;74.32;100403.72;5056908;28;20237;-76
2023/07/04 03:37:37;;;;;;;2.27;1.73;;;15.00;99.90;;;14.42;74.35;100410.06;5057217;28;20204;-76
2023/07/04 03:40:12;;;;;;;2.07;1.43;;;15.00;99.90;;;14.47;74.12;100411.16;5056881;28;20233;-76
2023/07/04 03:42:45;;;;;;;2.30;1.50;;;15.00;99.90;;;14.39;74.17;100408.59;5057111;28;20272;-76
2023/07/04 03:45:19;;;;;;;3.90;1.67;;;15.00;99.90;;;14.39;74.61;100413.13;5056995;28;20226;-76
2023/07/04 03:47:51;;;;;;;3.40;1.53;;;15.00;99.90;;;14.40;75.99;100406.72;5056932;28;20774;-76
2023/07/04 03:50:23;;;;;;;2.97;1.40;;;15.00;99.90;;;14.36;75.86;100408.97;5057008;28;20248;-76
2023/07/04 03:52:55;;;;;;;2.90;1.87;;;14.90;99.90;;;14.32;76.41;100402.28;5056984;28;20194;-76
2023/07/04 03:55:26;;;;;;;3.87;1.73;;;15.00;99.90;;;14.29;77.62;100401.81;5056788;28;20305;-76
2023/07/04 03:57:58;;;;;;;2.83;1.73;;;14.80;99.90;;;14.19;76.98;100394.91;5056790;28;20281;-76
2023/07/04 04:00:32;;;;;;;3.27;1.67;;;14.80;99.90;;;14.25;77.53;100392.50;5056728;28;20197;-76
2023/07/04 04:03:04;;;;;;;4.90;1.80;;;14.80;99.90;;;14.18;77.74;100400.47;5056677;28;20225;-76
2023/07/04 04:05:36;;;;;;;5.17;2.13;;;14.80;99.90;;;14.17;78.44;100407.75;5056616;28;20261;-76
2023/07/04 04:08:09;;;;;;;3.47;1.63;;;14.70;99.90;;;14.11;78.58;100415.72;5056535;28;20305;-76
2023/07/04 04:10:41;;;;;;;3.53;1.87;;;14.70;99.90;;;14.15;78.65;100411.63;5056548;28;20225;-76
2023/07/04 04:13:12;;;;;;;3.27;1.67;;;14.80;99.90;;;14.14;78.69;100409.97;5056239;28;20198;-76
2023/07/04 04:15:46;;;;;;;4.60;1.83;;;14.70;99.90;;;14.13;77.80;100411.84;5056126;28;20226;-76
2023/07/04 04:18:18;;;;;;;8.03;1.90;;;14.70;99.90;;;14.24;77.62;100413.19;5056442;28;20189;-76
2023/07/04 04:20:50;;;;;;;4.70;1.60;;;14.80;99.90;;;14.21;77.69;100413.56;5056101;28;20676;-76
2023/07/04 04:23:23;;;;;;;3.30;1.87;;;14.70;99.90;;;14.27;77.37;100407.41;5056352;28;20190;-76
2023/07/04 04:25:57;;;;;;;3.23;1.90;;;14.80;99.90;;;14.28;77.82;100419.84;5056282;28;20351;-76
2023/07/04 04:28:29;;;;;;;6.50;2.13;;;14.80;99.90;;;14.13;78.06;100411.84;5056252;28;20211;-76
2023/07/04 04:31:03;;;;;;;4.53;1.60;;;14.80;99.90;;;14.07;77.33;100417.16;5056268;28;20194;-77
2023/07/04 04:33:35;;;;;;;5.50;1.83;;;14.70;99.90;;;14.10;77.57;100414.06;5056232;28;20637;-77
2023/07/04 04:36:07;;;;;;;7.97;2.13;;;14.60;99.90;;;14.08;77.48;100402.66;5055427;28;20684;-77
2023/07/04 04:38:39;;;;;;;4.00;1.70;;;14.70;99.90;;;14.16;76.80;100413.31;5056087;28;20272;-77
2023/07/04 04:41:12;;;;;;;5.03;1.87;;;14.90;99.90;;;14.07;77.76;100414.47;5056036;28;20194;-76
2023/07/04 04:43:45;;;;;;;4.43;1.70;;;14.70;99.90;;;14.08;77.39;100419.63;5055851;28;20194;-76
2023/07/04 04:46:18;;;;;;;6.57;2.10;;;14.80;99.90;;;14.11;77.22;100434.56;5055903;28;20233;-76
2023/07/04 04:48:51;;;;;;;4.47;1.70;;;14.70;99.90;;;14.20;76.70;100430.75;5055838;28;20210;-76
2023/07/04 04:51:23;;;;;;;3.30;1.70;;;14.70;99.90;;;14.23;76.83;100436.59;5055837;28;20230;-76
2023/07/04 04:53:55;;;;;;;4.40;2.10;;;14.80;99.90;;;14.18;76.56;100438.16;5055762;28;20278;-76
2023/07/04 04:56:28;;;;;;;4.40;2.20;;;14.80;99.90;;;14.24;76.04;100432.03;5055453;28;20641;-76
2023/07/04 04:59:01;;;;;;;4.80;1.80;;;14.80;99.90;;;14.30;75.96;100444.72;5055788;28;20206;-76
2023/07/04 05:01:36;;;;;;;5.90;2.20;;;15.00;99.90;;;14.32;76.23;100458.81;5055391;28;20640;-76
2023/07/04 05:04:09;;;;;;;3.60;1.70;;;14.90;99.90;;;14.31;76.42;100443.72;5055548;28;20312;-76
2023/07/04 05:06:41;;;;;;;4.70;2.03;;;14.90;99.90;;;14.30;75.57;100450.13;5055576;28;20243;-76
2023/07/04 05:09:13;;;;;;;5.37;1.90;;;14.90;99.90;;;14.36;75.23;100451.22;5055114;28;20301;-77
2023/07/04 05:11:45;;;;;;;7.13;1.83;;;14.90;99.90;;;14.39;75.19;100445.47;5055208;28;20674;-77
2023/07/04 05:14:17;;;;;;;4.17;1.70;;;15.00;99.90;;;14.40;74.91;100457.91;5055397;28;20317;-77
2023/07/04 05:16:51;;;;;;;5.57;1.83;;;15.00;99.90;;;14.41;74.14;100455.03;5055476;28;20385;-77
2023/07/04 05:19:22;;;;;;;4.97;1.93;;;15.00;99.90;;;14.42;73.98;100451.28;5055074;28;20649;-77
2023/07/04 05:21:56;;;;;;;8.03;2.10;;;15.00;99.90;;;14.42;72.67;100453.16;5055324;28;20190;-76
2023/07/04 05:24:28;;;;;;;5.27;2.10;;;15.10;99.90;;;14.48;73.24;100458.63;5055137;28;20268;-76
2023/07/04 05:27:00;;;;;;;5.93;1.80;;;15.10;99.90;;;14.51;73.13;100455.56;5054988;28;20712;-76
2023/07/04 05:29:32;;;;;;;4.70;1.77;;;15.10;99.90;;;14.49;72.45;100456.75;5054774;28;20619;-77
2023/07/04 05:32:05;;;;;;;7.17;2.40;;;15.30;99.90;;;14.60;73.23;100461.63;5055071;28;20190;-77
2023/07/04 05:34:36;;;;;;;3.73;1.80;;;15.20;99.90;;;14.69;72.12;100453.22;5054761;28;20230;-77
2023/07/04 05:37:09;;;;;;;4.30;2.00;;;15.30;99.90;;;14.71;69.96;100461.13;5054702;28;20715;-77
2023/07/04 05:39:41;;;;;;;3.73;1.83;;;15.50;99.90;;;14.73;70.56;100469.03;5054986;28;20269;-77
2023/07/04 05:42:13;;;;;;;3.33;1.50;;;15.30;99.90;;;14.73;70.49;100470.66;5054851;28;20226;-77
2023/07/04 05:44:45;;;;;;;5.33;1.73;;;15.40;99.90;;;14.75;71.10;100469.66;5054477;28;20601;-77
2023/07/04 05:47:18;;;;;;;4.87;2.00;;;15.40;99.90;;;14.77;72.05;100476.50;5054135;28;20252;-77
2023/07/04 05:49:50;;;;;;;6.00;1.90;;;15.40;99.90;;;14.81;72.23;100461.63;5054647;28;20387;-77
2023/07/04 05:52:23;;;;;;;7.93;2.43;;;15.40;99.90;;;14.80;71.33;100476.09;5054412;28;20740;-77
2023/07/04 05:54:56;;;;;;;6.53;1.90;;;15.40;99.90;;;14.78;71.77;100482.72;5054403;28;20609;-77
2023/07/04 05:57:32;;;;;;;4.57;1.87;;;15.40;99.90;;;14.75;71.63;100478.56;5054315;28;20641;-77
2023/07/04 06:00:05;;;;;;;5.87;2.00;;;15.40;99.90;;;14.75;71.47;100475.03;5054544;28;20198;-77
2023/07/04 06:02:39;;;;;;;5.13;2.03;;;15.40;99.90;;;14.84;72.52;100477.41;5054572;28;20284;-77
2023/07/04 06:05:11;;;;;;;6.87;2.07;;;15.40;99.90;;;14.86;72.08;100485.31;5054429;28;20321;-77
2023/07/04 06:07:43;;;;;;;7.37;2.10;;;15.50;99.90;;;14.85;71.30;100486.31;5054416;28;20273;-77
2023/07/04 06:10:15;;;;;;;7.47;2.33;;;15.50;99.90;;;14.92;71.92;100482.66;5054271;28;20278;-77
2023/07/04 06:12:47;;;;;;;6.50;2.30;;;15.50;99.90;;;14.98;71.85;100489.13;5054020;28;20716;-77
2023/07/04 06:15:19;;;;;;;4.40;2.20;;;15.60;99.90;;;15.03;72.02;100494.78;5054151;28;20226;-77
2023/07/04 06:17:52;;;;;;;6.63;2.20;;;15.60;99.90;;;15.00;71.80;100487.09;5054185;28;20278;-77
2023/07/04 06:20:25;;;;;;;9.50;2.40;;;15.70;99.90;;;15.10;72.42;100488.38;5053874;28;20649;-77
2023/07/04 06:22:57;;;;;;;7.50;1.90;;;15.70;99.90;;;15.17;72.06;100480.38;5054114;28;20217;-77
2023/07/04 06:25:29;;;;;;;8.97;2.63;;;15.90;99.90;;;15.14;71.69;100488.81;5053662;28;20734;-77
2023/07/04 06:28:01;;;;;;;5.60;2.30;;;15.90;99.90;;;15.19;72.12;100503.41;5053946;28;20206;-77
2023/07/04 06:30:35;;;;;;;5.97;2.07;;;15.80;99.90;;;15.24;72.85;100495.56;5053901;28;20213;-77
2023/07/04 06:33:08;;;;;;;7.77;2.80;;;15.90;99.90;;;15.24;72.01;100505.50;5053920;28;20186;-77
2023/07/04 06:35:46;;;;;;;5.10;2.10;;;15.90;99.90;;;15.18;71.88;100511.69;5053464;28;20360;-77
2023/07/04 06:38:18;;;;;;;4.23;2.23;;;15.80;99.90;;;15.18;72.45;100506.28;5053566;28;20732;-77
2023/07/04 06:40:58;;;;;;;6.33;2.40;;;15.80;99.90;;;15.18;71.88;100508.97;5053485;28;20640;-77
2023/07/04 06:43:32;;;;;;;5.90;2.23;;;15.90;99.90;;;15.10;72.72;100509.97;5053437;28;20229;-77
2023/07/04 06:46:06;;;;;;;4.07;1.90;;;15.80;99.90;;;15.20;72.87;100515.03;5053673;28;20598;-77
2023/07/04 06:48:39;;;;;;;5.73;2.37;;;15.80;99.90;;;15.12;72.07;100507.91;5053797;28;20656;-77
2023/07/04 06:51:13;;;;;;;6.73;2.80;;;15.80;99.90;;;15.15;72.23;100520.16;5053392;28;20715;-77
2023/07/04 06:53:46;;;;;;;3.90;2.40;;;15.80;99.90;;;15.19;72.08;100518.75;5053569;28;20225;-77
2023/07/04 06:56:23;;;;;;;8.50;2.90;;;15.80;99.90;;;15.23;72.30;100520.03;5053603;28;20585;-77
2023/07/04 06:58:57;;;;;;;9.43;2.87;;;15.90;99.90;;;15.32;71.32;100529.63;5053510;28;20218;-77
2023/07/04 07:01:30;;;;;;;5.80;2.60;;;15.90;99.90;;;15.42;71.29;100523.91;5053493;28;20248;-77
2023/07/04 07:04:04;;;;;;;6.50;2.33;;;16.10;99.90;;;15.45;70.52;100528.88;5053459;28;20230;-77
2023/07/04 07:06:39;;;;;;;6.60;2.80;;;16.10;99.90;;;15.51;69.93;100534.41;5053400;28;20186;-77
2023/07/04 07:09:10;;;;;;;5.50;2.60;;;16.10;99.90;;;15.59;70.34;100533.38;5053494;28;20301;-77
2023/07/04 07:11:42;;;;;;;6.47;2.50;;;16.20;99.90;;;15.60;68.56;100532.34;5053160;28;20225;-77
2023/07/04 07:14:14;;;;;;;7.43;2.77;;;16.30;99.70;;;15.64;68.89;100537.19;5053348;28;20312;-77
2023/07/04 07:16:46;;;;;;;4.97;2.40;;;16.30;99.60;;;15.70;68.99;100541.78;5053347;28;20277;-77
2023/07/04 07:19:20;;;;;;;8.13;2.60;;;16.40;99.60;;;15.76;67.61;100533.91;5053308;28;20183;-77
2023/07/04 07:21:52;;;;;;;7.63;2.90;;;16.40;99.30;;;15.81;67.06;100545.78;5053031;28;20285;-77
2023/07/04 07:24:24;;;;;;;6.87;2.90;;;16.40;98.90;;;15.89;67.89;100552.91;5052913;28;20783;-77
2023/07/04 07:26:58;;;;;;;6.43;2.70;;;16.60;99.20;;;15.90;67.80;100546.44;5053282;28;20244;-77
2023/07/04 07:29:30;;;;;;;5.03;2.90;;;16.50;99.00;;;15.89;67.73;100547.50;5052836;28;20715;-77
2023/07/04 07:32:04;;;;;;;6.13;3.57;;;16.60;99.00;;;15.97;68.35;100550.00;5053348;28;20277;-73
2023/07/04 07:34:37;;;;;;;8.17;3.53;;;16.60;99.50;;;15.95;67.61;100539.44;5052881;28;20296;-73
2023/07/04 07:37:12;;;;;;;7.27;3.57;;;16.60;98.90;;;15.99;68.30;100547.97;5053263;28;20205;-73
2023/07/04 07:39:44;;;;;;;7.83;3.07;;;16.60;99.10;;;16.04;68.33;100557.13;5052914;28;20280;-73
2023/07/04 07:42:16;;;;;;;11.47;4.20;;;16.70;99.10;;;16.04;67.46;100556.28;5053158;28;20274;-73
2023/07/04 07:44:48;;;;;;;5.67;3.63;;;16.70;98.90;;;16.11;67.96;100557.16;5053010;28;20669;-76
2023/07/04 07:47:20;;;;;;;9.60;3.93;;;16.70;99.20;;;16.16;67.82;100560.09;5053119;28;20236;-74
2023/07/04 07:49:54;;;;;;;9.63;4.10;;;16.80;98.80;;;16.23;67.62;100556.38;5052901;28;20675;-76
2023/07/04 07:52:25;;;;;;;8.00;3.57;;;16.90;98.70;;;16.27;66.75;100564.09;5052857;28;20729;-75
2023/07/04 07:54:57;;;;;;;5.67;3.53;;;16.90;98.30;;;16.21;66.23;100563.84;5052619;28;20229;-75
2023/07/04 07:57:29;;;;;;;9.33;4.07;;;16.90;97.90;;;16.20;65.99;100564.03;5052713;28;20289;-76
2023/07/04 08:00:01;;;;;;;9.73;3.87;;;16.80;97.90;;;16.27;66.16;100556.00;5052977;28;20187;-75
2023/07/04 08:02:33;;;;;;;7.17;4.13;;;16.90;98.20;;;16.29;66.73;100575.53;5052642;28;20639;-75
2023/07/04 08:05:06;;;;;;;10.47;4.80;;;16.90;98.20;;;16.34;66.14;100573.03;5052824;28;20237;-75
2023/07/04 08:07:38;;;;;;;11.33;4.30;;;16.90;98.30;;;16.32;65.55;100575.94;5052884;28;20190;-75
2023/07/04 08:10:11;;;;;;;6.47;3.63;;;17.00;97.80;;;16.33;65.49;100583.03;5052767;28;20221;-75
2023/07/04 08:12:43;;;;;;;8.47;3.60;;;16.90;97.40;;;16.35;65.00;100586.34;5056305;28;20655;-75
2023/07/04 08:15:15;;;;;;;6.73;3.43;;;16.90;97.40;;;16.34;65.89;100576.56;5056496;28;20248;-75
2023/07/04 08:17:47;;;;;;;6.73;3.27;;;16.90;97.70;;;16.34;65.14;100573.88;5056508;28;20201;-75
2023/07/04 08:20:21;;;;;;;11.00;3.70;;;17.00;97.60;;;16.40;65.28;100572.25;5057053;28;20186;-75
2023/07/04 08:22:53;;;;;;;8.80;3.53;;;17.00;97.60;;;16.41;64.67;100585.53;5056449;28;20190;-75
2023/07/04 08:25:25;;;;;;;10.53;3.43;;;17.00;97.20;;;16.44;65.15;100585.13;5056349;28;20320;-75
2023/07/04 08:27:58;;;;;;;5.63;2.60;;;17.00;97.10;;;16.38;62.94;100571.59;5056024;28;20285;-75
2023/07/04 08:30:30;;;;;;;6.33;3.00;;;17.00;96.10;;;16.45;62.31;100576.00;5056238;28;20214;-75
2023/07/04 08:33:01;;;;;;;6.07;3.10;;;17.00;96.40;;;16.45;62.90;100584.09;5056264;28;20200;-75
2023/07/04 08:35:35;;;;;;;6.40;2.70;;;17.00;96.00;;;16.45;62.25;100573.28;5055772;28;20240;-75
2023/07/04 08:38:06;;;;;;;8.37;3.10;;;17.10;96.10;;;16.49;62.42;100577.28;5056141;28;20317;-75
2023/07/04 08:40:45;;;;;;;7.77;2.93;;;17.10;96.20;;;16.49;62.08;100571.03;5056037;28;20209;-75
2023/07/04 08:43:20;;;;;;;5.53;3.10;;;17.20;95.90;;;16.68;62.95;100573.81;5056046;28;20276;-75
2023/07/04 08:45:54;;;;;;;6.93;2.43;;;17.20;96.30;;;16.79;62.97;100580.50;5055944;28;20316;-75
2023/07/04 08:48:29;;;;;;;5.57;2.90;;;17.40;96.10;;;16.93;62.01;100573.25;5055997;28;20198;-75
2023/07/04 08:51:05;;;;;;;7.23;2.77;;;17.50;95.90;;;16.90;61.82;100579.06;5055615;28;20217;-75
2023/07/04 08:53:43;;;;;;;6.53;3.10;;;17.50;95.40;;;17.14;60.96;100573.91;5055937;28;20243;-75
2023/07/04 08:56:27;;;;;;;6.27;2.77;;;17.70;95.60;;;17.25;62.38;100575.16;5055801;28;20194;-75
2023/07/04 08:59:09;;;;;;;6.10;2.53;;;17.90;95.80;;;17.40;60.71;100588.47;5055483;28;20285;-75
2023/07/04 09:02:00;;;;;;;5.73;2.33;;;18.00;94.90;;;17.44;58.66;100592.44;5055752;28;20186;-75
2023/07/04 09:04:46;;;;;;;7.03;2.80;;;18.00;93.90;;;17.58;59.16;100581.44;5055321;28;20257;-75
2023/07/04 09:07:35;;;;;;;6.90;2.60;;;18.20;94.20;;;17.73;58.45;100592.03;5055656;28;20194;-75
2023/07/04 09:10:25;;;;;;;5.23;2.50;;;18.30;93.70;;;17.88;57.65;100594.50;5055540;28;20576;-75
2023/07/04 09:12:57;;;;;;;6.13;2.63;;;18.50;93.80;;;17.84;58.11;100598.69;5055494;28;20240;-75
2023/07/04 09:15:34;;;;;;;5.73;2.60;;;18.50;93.20;;;17.79;57.92;100601.19;5055368;28;20261;-75
2023/07/04 09:18:21;;;;;;;5.80;2.43;;;18.40;93.00;;;17.74;57.73;100599.94;5055477;28;20190;-75
2023/07/04 09:21:04;;;;;;;8.67;3.10;;;18.30;93.40;;;17.79;58.88;100602.03;5055421;28;20197;-75
2023/07/04 09:23:37;;;;;;;9.50;2.67;;;18.40;93.40;;;17.78;58.47;100607.63;5054247;28;20190;-75
2023/07/04 09:26:13;;;;;;;6.60;2.50;;;18.30;93.30;;;17.82;58.94;100612.44;5054962;28;20289;-75
2023/07/04 09:28:51;;;;;;;6.80;2.47;;;18.40;93.50;;;17.87;59.32;100611.81;5055244;28;20285;-75
2023/07/04 09:31:26;;;;;;;6.70;2.40;;;18.40;93.80;;;17.85;53.90;100616.59;5054785;28;20206;-75
2023/07/04 09:34:03;;;;;;;3.90;1.83;;;18.50;91.00;;;17.84;53.74;100614.94;5054939;28;20236;-75
2023/07/04 09:36:40;;;;;;;6.67;1.93;;;18.40;90.40;;;17.87;53.57;100619.94;5054737;28;20557;-75
2023/07/04 09:39:13;;;;;;;6.23;2.07;;;18.40;90.30;;;17.99;53.86;100604.69;5055055;28;20281;-75
2023/07/04 09:41:56;;;;;;;7.37;2.40;;;18.50;90.70;;;18.12;56.09;100618.19;5054981;28;20235;-75
2023/07/04 09:44:49;;;;;;;4.83;2.03;;;18.70;91.70;;;18.28;52.28;100606.94;5055005;28;20252;-75
2023/07/04 09:47:29;;;;;;;6.20;2.10;;;18.90;89.30;;;18.34;51.88;100605.22;5054872;28;20202;-75
2023/07/04 09:50:14;;;;;;;6.00;2.37;;;18.90;88.30;;;18.53;50.92;100599.75;5054388;28;20193;-75
2023/07/04 09:52:46;;;;;;;7.40;2.30;;;19.10;88.10;;;18.67;52.28;100595.94;5054483;28;20826;-75
2023/07/04 09:55:28;;;;;;;8.00;2.77;;;19.20;88.50;;;18.73;49.45;100608.63;5054611;28;20317;-75
2023/07/04 09:58:21;;;;;;;4.47;2.10;;;19.30;85.40;;;18.77;50.53;100594.66;5054365;28;20196;-75
2023/07/04 10:01:16;;;;;;;4.67;2.00;;;19.30;86.00;;;18.88;49.76;100593.94;5054274;28;20548;-74
2023/07/04 10:03:49;;;;;;;5.70;2.53;;;19.40;85.90;;;18.95;47.65;100592.00;5054060;28;20700;-75
2023/07/04 10:06:36;;;;;;;6.13;2.23;;;19.50;82.50;;;19.01;50.13;100596.56;5054186;28;20656;-75
2023/07/04 10:09:18;;;;;;;5.57;2.60;;;19.60;83.60;;;19.00;48.99;100595.75;5054075;28;20194;-75
2023/07/04 10:12:07;;;;;;;6.10;2.63;;;19.50;84.20;;;19.00;50.97;100592.22;5054332;28;20237;-75
2023/07/04 10:14:48;;;;;;;8.07;2.70;;;19.50;85.10;;;19.19;48.74;100607.50;5054242;28;20265;-75
2023/07/04 10:17:22;;;;;;;10.73;2.77;;;19.70;84.70;;;19.33;49.03;100600.94;5054312;28;20225;-75
2023/07/04 10:20:04;;;;;;;11.20;2.07;;;19.80;83.80;;;19.34;48.76;100608.03;5054283;28;20208;-75
2023/07/04 10:22:39;;;;;;;8.40;2.60;;;19.90;83.60;;;19.17;48.37;100606.91;5054204;28;20285;-75
2023/07/04 10:25:16;;;;;;;9.17;2.93;;;19.70;82.60;;;19.07;49.34;100625.56;5054005;28;20249;-75
2023/07/04 10:28:12;;;;;;;8.03;2.50;;;19.60;83.70;;;19.06;49.72;100613.88;5054095;28;20190;-75
2023/07/04 10:30:50;;;;;;;7.53;2.80;;;19.60;85.30;;;19.05;49.75;100608.66;5053960;28;20301;-75
2023/07/04 10:33:31;;;;;;;6.60;2.17;;;19.50;84.70;;;19.11;50.11;100607.78;5053726;28;20240;-75
2023/07/04 10:36:03;;;;;;;7.20;2.33;;;19.60;85.00;;;19.34;49.42;100594.47;5053682;28;20693;-75
2023/07/04 10:38:45;;;;;;;7.27;2.50;;;19.80;84.30;;;19.41;47.64;100598.00;5053626;28;20198;-75
2023/07/04 10:41:24;;;;;;;6.20;2.37;;;19.90;81.60;;;19.54;46.65;100592.44;5053845;28;20190;-75
2023/07/04 10:44:04;;;;;;;8.93;2.70;;;20.10;81.60;;;19.56;47.40;100584.06;5053791;28;20273;-75